KLCK

Rickenbacker International Airport

Columbus, Ohio, USA
METAR KLCK 260255Z AUTO 25005KT 10SM CLR 05/01 A3013 RMK AO2 T00540009
Observed Flight Rules
Feb-26 @ 02:55 UTC (31 minutes ago) Visual Flight Rules
Wind Visibility Clouds
250° at 5 knots 10 miles
  • Clear skies
Temperatures Readings
Current 5°C / 41°F
Dewpoint 1°C / 34°F
Humidity 76%
Altimeter 30.13" Hg
Pressure 1020 hPa
Elevation 227
METAR KLCK 260255Z AUTO 25005KT 10SM CLR 05/01 A3013 RMK AO2 T00540009
Observed Flight Rules
Feb-26 @ 02:55 UTC
(31 minutes ago)
VFR
Wind Visibility
250° at 5 knots 10 miles
Clouds
  • Clear skies
Temperature Dewpoint
5°C / 41°F 1°C / 34°F
Humidity Altimeter Pressure
76% 30.13" Hg 1020 hPa